sensor_id;sensor_type;location;lat;lon;timestamp;temperature;humidity
15121;DHT22;7661;48.904;9.414;2023-05-31T00:01:36;15.70;64.10
15121;DHT22;7661;48.904;9.414;2023-05-31T00:04:03;15.70;64.00
15121;DHT22;7661;48.904;9.414;2023-05-31T00:06:31;15.60;64.30
15121;DHT22;7661;48.904;9.414;2023-05-31T00:08:58;15.60;64.10
15121;DHT22;7661;48.904;9.414;2023-05-31T00:11:25;15.60;65.30
15121;DHT22;7661;48.904;9.414;2023-05-31T00:13:52;15.50;64.60
15121;DHT22;7661;48.904;9.414;2023-05-31T00:16:19;15.50;64.10
15121;DHT22;7661;48.904;9.414;2023-05-31T00:18:46;15.50;64.70
15121;DHT22;7661;48.904;9.414;2023-05-31T00:21:13;15.50;64.20
15121;DHT22;7661;48.904;9.414;2023-05-31T00:23:41;15.40;64.00
15121;DHT22;7661;48.904;9.414;2023-05-31T00:26:08;15.40;64.20
15121;DHT22;7661;48.904;9.414;2023-05-31T00:28:35;15.40;64.00
15121;DHT22;7661;48.904;9.414;2023-05-31T00:31:02;15.40;63.90
15121;DHT22;7661;48.904;9.414;2023-05-31T00:33:29;15.40;64.20
15121;DHT22;7661;48.904;9.414;2023-05-31T00:35:56;15.40;64.20
15121;DHT22;7661;48.904;9.414;2023-05-31T00:38:23;15.30;64.00
15121;DHT22;7661;48.904;9.414;2023-05-31T00:40:51;15.30;63.60
15121;DHT22;7661;48.904;9.414;2023-05-31T00:43:18;15.30;64.50
15121;DHT22;7661;48.904;9.414;2023-05-31T00:45:45;15.30;64.00
15121;DHT22;7661;48.904;9.414;2023-05-31T00:48:12;15.30;64.00
15121;DHT22;7661;48.904;9.414;2023-05-31T00:50:39;15.30;64.30
15121;DHT22;7661;48.904;9.414;2023-05-31T00:53:06;15.20;64.10
15121;DHT22;7661;48.904;9.414;2023-05-31T00:55:34;15.20;64.40
15121;DHT22;7661;48.904;9.414;2023-05-31T00:58:03;15.10;64.40
15121;DHT22;7661;48.904;9.414;2023-05-31T01:00:31;15.10;64.50
15121;DHT22;7661;48.904;9.414;2023-05-31T01:02:57;15.10;64.90
15121;DHT22;7661;48.904;9.414;2023-05-31T01:05:27;15.10;65.10
15121;DHT22;7661;48.904;9.414;2023-05-31T01:07:54;15.00;65.50
15121;DHT22;7661;48.904;9.414;2023-05-31T01:10:22;15.00;65.30
15121;DHT22;7661;48.904;9.414;2023-05-31T01:12:56;15.00;65.60
15121;DHT22;7661;48.904;9.414;2023-05-31T01:15:32;14.90;65.50
15121;DHT22;7661;48.904;9.414;2023-05-31T01:18:06;14.90;65.50
15121;DHT22;7661;48.904;9.414;2023-05-31T01:20:38;14.90;65.80
15121;DHT22;7661;48.904;9.414;2023-05-31T01:23:21;14.90;66.70
15121;DHT22;7661;48.904;9.414;2023-05-31T01:26:23;14.90;66.20
15121;DHT22;7661;48.904;9.414;2023-05-31T01:28:55;14.80;65.90
15121;DHT22;7661;48.904;9.414;2023-05-31T01:31:27;14.80;65.90
15121;DHT22;7661;48.904;9.414;2023-05-31T01:33:56;14.80;66.30
15121;DHT22;7661;48.904;9.414;2023-05-31T01:36:24;14.80;66.20
15121;DHT22;7661;48.904;9.414;2023-05-31T01:38:51;14.80;66.50
15121;DHT22;7661;48.904;9.414;2023-05-31T01:41:19;14.70;66.70
15121;DHT22;7661;48.904;9.414;2023-05-31T01:43:48;14.70;66.80
15121;DHT22;7661;48.904;9.414;2023-05-31T01:46:17;14.70;66.90
15121;DHT22;7661;48.904;9.414;2023-05-31T01:48:45;14.70;67.00
15121;DHT22;7661;48.904;9.414;2023-05-31T01:51:14;14.70;67.10
15121;DHT22;7661;48.904;9.414;2023-05-31T01:53:41;14.70;67.00
15121;DHT22;7661;48.904;9.414;2023-05-31T01:56:09;14.60;67.00
15121;DHT22;7661;48.904;9.414;2023-05-31T01:58:38;14.60;66.90
15121;DHT22;7661;48.904;9.414;2023-05-31T02:01:08;14.60;67.00
15121;DHT22;7661;48.904;9.414;2023-05-31T02:03:37;14.60;67.40
15121;DHT22;7661;48.904;9.414;2023-05-31T02:06:05;14.50;67.10
15121;DHT22;7661;48.904;9.414;2023-05-31T02:08:32;14.60;67.00
15121;DHT22;7661;48.904;9.414;2023-05-31T02:10:58;14.50;67.30
15121;DHT22;7661;48.904;9.414;2023-05-31T02:13:27;14.50;67.20
15121;DHT22;7661;48.904;9.414;2023-05-31T02:15:54;14.50;67.40
15121;DHT22;7661;48.904;9.414;2023-05-31T02:18:23;14.50;67.60
15121;DHT22;7661;48.904;9.414;2023-05-31T02:20:52;14.40;67.80
15121;DHT22;7661;48.904;9.414;2023-05-31T02:23:19;14.40;67.60
15121;DHT22;7661;48.904;9.414;2023-05-31T02:25:48;14.40;67.70
15121;DHT22;7661;48.904;9.414;2023-05-31T02:28:15;14.30;68.10
15121;DHT22;7661;48.904;9.414;2023-05-31T02:30:53;14.30;67.70
15121;DHT22;7661;48.904;9.414;2023-05-31T02:33:20;14.30;67.80
15121;DHT22;7661;48.904;9.414;2023-05-31T02:35:48;14.30;67.60
15121;DHT22;7661;48.904;9.414;2023-05-31T02:38:15;14.30;67.80
15121;DHT22;7661;48.904;9.414;2023-05-31T02:40:42;14.30;67.60
15121;DHT22;7661;48.904;9.414;2023-05-31T02:43:09;14.20;67.60
15121;DHT22;7661;48.904;9.414;2023-05-31T02:45:36;14.20;67.50
15121;DHT22;7661;48.904;9.414;2023-05-31T02:48:03;14.20;67.60
15121;DHT22;7661;48.904;9.414;2023-05-31T02:50:31;14.20;67.60
15121;DHT22;7661;48.904;9.414;2023-05-31T02:52:59;14.20;67.70
15121;DHT22;7661;48.904;9.414;2023-05-31T02:55:29;14.20;67.70
15121;DHT22;7661;48.904;9.414;2023-05-31T02:57:56;14.20;67.70
15121;DHT22;7661;48.904;9.414;2023-05-31T03:00:23;14.10;67.70
15121;DHT22;7661;48.904;9.414;2023-05-31T03:02:51;14.10;67.70
15121;DHT22;7661;48.904;9.414;2023-05-31T03:05:18;14.10;68.50
15121;DHT22;7661;48.904;9.414;2023-05-31T03:07:45;14.10;67.90
15121;DHT22;7661;48.904;9.414;2023-05-31T03:10:13;14.10;68.00
15121;DHT22;7661;48.904;9.414;2023-05-31T03:12:40;14.10;68.30
15121;DHT22;7661;48.904;9.414;2023-05-31T03:15:08;14.10;68.00
15121;DHT22;7661;48.904;9.414;2023-05-31T03:17:35;14.10;68.10
15121;DHT22;7661;48.904;9.414;2023-05-31T03:20:05;14.00;68.30
15121;DHT22;7661;48.904;9.414;2023-05-31T03:22:34;14.00;68.30
15121;DHT22;7661;48.904;9.414;2023-05-31T03:25:01;14.00;68.40
15121;DHT22;7661;48.904;9.414;2023-05-31T03:27:30;14.00;68.30
15121;DHT22;7661;48.904;9.414;2023-05-31T03:29:58;13.90;68.50
15121;DHT22;7661;48.904;9.414;2023-05-31T03:32:25;13.90;68.50
15121;DHT22;7661;48.904;9.414;2023-05-31T03:34:52;13.90;68.50
15121;DHT22;7661;48.904;9.414;2023-05-31T03:37:19;13.90;68.80
15121;DHT22;7661;48.904;9.414;2023-05-31T03:39:46;13.90;68.80
15121;DHT22;7661;48.904;9.414;2023-05-31T03:42:13;13.90;69.10
15121;DHT22;7661;48.904;9.414;2023-05-31T03:44:41;13.90;69.10
15121;DHT22;7661;48.904;9.414;2023-05-31T03:47:09;13.90;69.00
15121;DHT22;7661;48.904;9.414;2023-05-31T03:49:36;13.90;69.10
15121;DHT22;7661;48.904;9.414;2023-05-31T03:52:03;13.90;69.20
15121;DHT22;7661;48.904;9.414;2023-05-31T03:54:30;13.90;69.20
15121;DHT22;7661;48.904;9.414;2023-05-31T03:56:57;13.90;69.50
15121;DHT22;7661;48.904;9.414;2023-05-31T03:59:24;13.90;69.50
15121;DHT22;7661;48.904;9.414;2023-05-31T04:01:53;13.90;69.70
15121;DHT22;7661;48.904;9.414;2023-05-31T04:04:20;13.90;69.70
15121;DHT22;7661;48.904;9.414;2023-05-31T04:06:47;13.90;69.70
15121;DHT22;7661;48.904;9.414;2023-05-31T04:09:14;13.90;70.00
15121;DHT22;7661;48.904;9.414;2023-05-31T04:11:41;13.90;70.30
15121;DHT22;7661;48.904;9.414;2023-05-31T04:14:08;13.90;70.20
15121;DHT22;7661;48.904;9.414;2023-05-31T04:16:35;13.90;70.60
15121;DHT22;7661;48.904;9.414;2023-05-31T04:19:03;13.90;70.80
15121;DHT22;7661;48.904;9.414;2023-05-31T04:21:30;13.90;70.30
15121;DHT22;7661;48.904;9.414;2023-05-31T04:23:58;13.90;71.50
15121;DHT22;7661;48.904;9.414;2023-05-31T04:26:25;13.90;71.30
15121;DHT22;7661;48.904;9.414;2023-05-31T04:28:52;13.90;70.60
15121;DHT22;7661;48.904;9.414;2023-05-31T04:31:20;14.00;71.00
15121;DHT22;7661;48.904;9.414;2023-05-31T04:33:50;14.00;71.10
15121;DHT22;7661;48.904;9.414;2023-05-31T04:36:20;14.00;71.00
15121;DHT22;7661;48.904;9.414;2023-05-31T04:38:48;14.00;71.10
15121;DHT22;7661;48.904;9.414;2023-05-31T04:41:15;14.00;71.20
15121;DHT22;7661;48.904;9.414;2023-05-31T04:43:42;14.00;71.20
15121;DHT22;7661;48.904;9.414;2023-05-31T04:46:09;14.10;70.90
15121;DHT22;7661;48.904;9.414;2023-05-31T04:48:36;14.10;71.30
15121;DHT22;7661;48.904;9.414;2023-05-31T04:51:03;14.10;71.30
15121;DHT22;7661;48.904;9.414;2023-05-31T04:53:33;14.10;71.30
15121;DHT22;7661;48.904;9.414;2023-05-31T04:56:00;14.10;71.30
15121;DHT22;7661;48.904;9.414;2023-05-31T04:58:30;14.20;70.80
15121;DHT22;7661;48.904;9.414;2023-05-31T05:00:57;14.20;71.00
15121;DHT22;7661;48.904;9.414;2023-05-31T05:03:25;14.20;71.00
15121;DHT22;7661;48.904;9.414;2023-05-31T05:05:52;14.20;70.90
15121;DHT22;7661;48.904;9.414;2023-05-31T05:08:19;14.30;71.10
15121;DHT22;7661;48.904;9.414;2023-05-31T05:10:48;14.30;71.00
15121;DHT22;7661;48.904;9.414;2023-05-31T05:13:15;14.30;71.00
15121;DHT22;7661;48.904;9.414;2023-05-31T05:15:42;14.40;71.50
15121;DHT22;7661;48.904;9.414;2023-05-31T05:18:09;14.40;71.70
15121;DHT22;7661;48.904;9.414;2023-05-31T05:20:36;14.40;71.30
15121;DHT22;7661;48.904;9.414;2023-05-31T05:23:03;14.40;71.80
15121;DHT22;7661;48.904;9.414;2023-05-31T05:25:32;14.40;71.60
15121;DHT22;7661;48.904;9.414;2023-05-31T05:28:01;14.50;71.80
15121;DHT22;7661;48.904;9.414;2023-05-31T05:30:28;14.50;72.40
15121;DHT22;7661;48.904;9.414;2023-05-31T05:32:55;14.60;72.30
15121;DHT22;7661;48.904;9.414;2023-05-31T05:35:22;14.60;72.40
15121;DHT22;7661;48.904;9.414;2023-05-31T05:37:49;14.70;72.50
15121;DHT22;7661;48.904;9.414;2023-05-31T05:40:16;14.70;73.40
15121;DHT22;7661;48.904;9.414;2023-05-31T05:42:43;14.80;72.90
15121;DHT22;7661;48.904;9.414;2023-05-31T05:45:12;14.80;72.80
15121;DHT22;7661;48.904;9.414;2023-05-31T05:47:39;14.90;73.20
15121;DHT22;7661;48.904;9.414;2023-05-31T05:50:07;15.00;72.70
15121;DHT22;7661;48.904;9.414;2023-05-31T05:52:34;15.10;73.30
15121;DHT22;7661;48.904;9.414;2023-05-31T05:55:01;15.10;72.80
15121;DHT22;7661;48.904;9.414;2023-05-31T05:57:28;15.20;73.40
15121;DHT22;7661;48.904;9.414;2023-05-31T05:59:55;15.20;72.90
15121;DHT22;7661;48.904;9.414;2023-05-31T06:02:24;15.30;73.00
15121;DHT22;7661;48.904;9.414;2023-05-31T06:04:51;15.30;73.60
15121;DHT22;7661;48.904;9.414;2023-05-31T06:07:18;15.40;73.60
15121;DHT22;7661;48.904;9.414;2023-05-31T06:09:45;15.50;73.90
15121;DHT22;7661;48.904;9.414;2023-05-31T06:12:12;15.60;73.20
15121;DHT22;7661;48.904;9.414;2023-05-31T06:14:39;15.70;73.00
15121;DHT22;7661;48.904;9.414;2023-05-31T06:17:06;15.70;72.60
15121;DHT22;7661;48.904;9.414;2023-05-31T06:19:34;15.80;73.20
15121;DHT22;7661;48.904;9.414;2023-05-31T06:22:01;15.90;73.50
15121;DHT22;7661;48.904;9.414;2023-05-31T06:24:28;16.00;73.30
15121;DHT22;7661;48.904;9.414;2023-05-31T06:26:55;16.10;72.80
15121;DHT22;7661;48.904;9.414;2023-05-31T06:29:22;16.20;73.30
15121;DHT22;7661;48.904;9.414;2023-05-31T06:31:49;16.30;72.90
15121;DHT22;7661;48.904;9.414;2023-05-31T06:34:16;16.40;73.90
15121;DHT22;7661;48.904;9.414;2023-05-31T06:36:44;16.50;72.60
15121;DHT22;7661;48.904;9.414;2023-05-31T06:39:11;16.60;71.60
15121;DHT22;7661;48.904;9.414;2023-05-31T06:41:38;16.70;72.20
15121;DHT22;7661;48.904;9.414;2023-05-31T06:44:04;16.80;72.70
15121;DHT22;7661;48.904;9.414;2023-05-31T06:46:31;16.90;72.60
15121;DHT22;7661;48.904;9.414;2023-05-31T06:48:58;17.00;72.80
15121;DHT22;7661;48.904;9.414;2023-05-31T06:51:26;17.20;72.40
15121;DHT22;7661;48.904;9.414;2023-05-31T06:53:55;17.40;72.80
15121;DHT22;7661;48.904;9.414;2023-05-31T06:56:22;17.60;71.70
15121;DHT22;7661;48.904;9.414;2023-05-31T06:58:48;17.70;70.10
15121;DHT22;7661;48.904;9.414;2023-05-31T07:01:16;17.80;68.90
15121;DHT22;7661;48.904;9.414;2023-05-31T07:03:43;18.00;67.10
15121;DHT22;7661;48.904;9.414;2023-05-31T07:06:10;18.10;68.50
15121;DHT22;7661;48.904;9.414;2023-05-31T07:08:36;18.20;67.80
15121;DHT22;7661;48.904;9.414;2023-05-31T07:11:05;18.30;66.60
15121;DHT22;7661;48.904;9.414;2023-05-31T07:13:32;18.50;67.00
15121;DHT22;7661;48.904;9.414;2023-05-31T07:15:59;18.60;67.00
15121;DHT22;7661;48.904;9.414;2023-05-31T07:18:25;18.70;66.40
15121;DHT22;7661;48.904;9.414;2023-05-31T07:20:52;18.80;68.00
15121;DHT22;7661;48.904;9.414;2023-05-31T07:23:22;19.00;66.80
15121;DHT22;7661;48.904;9.414;2023-05-31T07:25:49;19.10;64.90
15121;DHT22;7661;48.904;9.414;2023-05-31T07:28:18;19.20;65.50
15121;DHT22;7661;48.904;9.414;2023-05-31T07:30:45;19.40;65.10
15121;DHT22;7661;48.904;9.414;2023-05-31T07:33:12;19.50;63.80
15121;DHT22;7661;48.904;9.414;2023-05-31T07:35:39;19.60;63.60
15121;DHT22;7661;48.904;9.414;2023-05-31T07:38:06;19.80;64.40
15121;DHT22;7661;48.904;9.414;2023-05-31T07:40:32;20.00;63.60
15121;DHT22;7661;48.904;9.414;2023-05-31T07:43:00;20.00;61.20
15121;DHT22;7661;48.904;9.414;2023-05-31T07:45:28;20.10;61.50
15121;DHT22;7661;48.904;9.414;2023-05-31T07:47:56;20.20;62.60
15121;DHT22;7661;48.904;9.414;2023-05-31T07:50:23;20.30;62.60
15121;DHT22;7661;48.904;9.414;2023-05-31T07:52:51;20.30;62.80
15121;DHT22;7661;48.904;9.414;2023-05-31T07:55:18;20.50;62.70
15121;DHT22;7661;48.904;9.414;2023-05-31T07:57:45;20.60;62.50
15121;DHT22;7661;48.904;9.414;2023-05-31T08:00:12;20.70;62.10
15121;DHT22;7661;48.904;9.414;2023-05-31T08:02:41;20.80;60.60
15121;DHT22;7661;48.904;9.414;2023-05-31T08:05:09;20.90;61.20
15121;DHT22;7661;48.904;9.414;2023-05-31T08:07:48;21.00;61.50
15121;DHT22;7661;48.904;9.414;2023-05-31T08:10:15;21.20;61.20
15121;DHT22;7661;48.904;9.414;2023-05-31T08:12:42;21.30;60.50
15121;DHT22;7661;48.904;9.414;2023-05-31T08:15:10;21.40;60.60
15121;DHT22;7661;48.904;9.414;2023-05-31T08:17:37;21.50;59.90
15121;DHT22;7661;48.904;9.414;2023-05-31T08:20:08;21.70;59.60
15121;DHT22;7661;48.904;9.414;2023-05-31T08:22:35;21.80;60.00
15121;DHT22;7661;48.904;9.414;2023-05-31T08:25:03;21.80;59.80
15121;DHT22;7661;48.904;9.414;2023-05-31T08:27:30;22.00;59.00
15121;DHT22;7661;48.904;9.414;2023-05-31T08:29:58;22.10;59.80
15121;DHT22;7661;48.904;9.414;2023-05-31T08:32:25;22.20;60.00
15121;DHT22;7661;48.904;9.414;2023-05-31T08:34:52;22.40;60.10
15121;DHT22;7661;48.904;9.414;2023-05-31T08:37:21;22.60;61.30
15121;DHT22;7661;48.904;9.414;2023-05-31T08:39:47;22.80;59.50
15121;DHT22;7661;48.904;9.414;2023-05-31T08:42:16;22.80;59.30
15121;DHT22;7661;48.904;9.414;2023-05-31T08:44:45;22.90;59.60
15121;DHT22;7661;48.904;9.414;2023-05-31T08:47:17;23.00;58.40
15121;DHT22;7661;48.904;9.414;2023-05-31T08:49:45;23.00;58.60
15121;DHT22;7661;48.904;9.414;2023-05-31T08:52:14;23.10;58.40
15121;DHT22;7661;48.904;9.414;2023-05-31T08:55:04;23.20;58.20
15121;DHT22;7661;48.904;9.414;2023-05-31T08:57:33;23.20;58.00
15121;DHT22;7661;48.904;9.414;2023-05-31T09:00:02;23.20;58.10
15121;DHT22;7661;48.904;9.414;2023-05-31T09:02:43;23.30;58.00
15121;DHT22;7661;48.904;9.414;2023-05-31T09:05:25;23.50;57.90
15121;DHT22;7661;48.904;9.414;2023-05-31T09:07:52;23.70;57.40
15121;DHT22;7661;48.904;9.414;2023-05-31T09:10:21;23.70;57.80
15121;DHT22;7661;48.904;9.414;2023-05-31T09:12:48;23.80;56.50
15121;DHT22;7661;48.904;9.414;2023-05-31T09:15:19;23.90;57.00
15121;DHT22;7661;48.904;9.414;2023-05-31T09:17:48;24.10;57.70
15121;DHT22;7661;48.904;9.414;2023-05-31T09:20:16;24.30;55.90
15121;DHT22;7661;48.904;9.414;2023-05-31T09:22:47;24.50;55.50
15121;DHT22;7661;48.904;9.414;2023-05-31T09:25:14;24.70;54.20
15121;DHT22;7661;48.904;9.414;2023-05-31T09:27:43;24.70;54.90
15121;DHT22;7661;48.904;9.414;2023-05-31T09:30:11;24.90;54.40
15121;DHT22;7661;48.904;9.414;2023-05-31T09:32:39;25.00;54.70
15121;DHT22;7661;48.904;9.414;2023-05-31T09:35:10;25.40;55.20
15121;DHT22;7661;48.904;9.414;2023-05-31T09:37:45;25.60;53.20
15121;DHT22;7661;48.904;9.414;2023-05-31T09:40:13;25.80;51.80
15121;DHT22;7661;48.904;9.414;2023-05-31T09:45:24;26.20;53.10
15121;DHT22;7661;48.904;9.414;2023-05-31T09:47:51;26.40;51.20
15121;DHT22;7661;48.904;9.414;2023-05-31T09:50:20;26.60;52.00
15121;DHT22;7661;48.904;9.414;2023-05-31T09:52:48;26.70;51.80
15121;DHT22;7661;48.904;9.414;2023-05-31T09:55:17;26.90;51.60
15121;DHT22;7661;48.904;9.414;2023-05-31T09:57:44;27.10;50.30
15121;DHT22;7661;48.904;9.414;2023-05-31T10:00:19;27.30;50.60
15121;DHT22;7661;48.904;9.414;2023-05-31T10:02:48;27.50;49.30
15121;DHT22;7661;48.904;9.414;2023-05-31T10:05:16;27.60;48.30
15121;DHT22;7661;48.904;9.414;2023-05-31T10:07:45;27.60;49.80
15121;DHT22;7661;48.904;9.414;2023-05-31T10:12:48;28.10;45.30
15121;DHT22;7661;48.904;9.414;2023-05-31T10:15:19;28.00;49.00
15121;DHT22;7661;48.904;9.414;2023-05-31T10:17:54;28.30;47.00
15121;DHT22;7661;48.904;9.414;2023-05-31T10:20:27;28.30;48.70
15121;DHT22;7661;48.904;9.414;2023-05-31T10:23:20;28.40;47.30
15121;DHT22;7661;48.904;9.414;2023-05-31T10:28:39;28.20;46.10
15121;DHT22;7661;48.904;9.414;2023-05-31T10:31:10;28.10;45.30
15121;DHT22;7661;48.904;9.414;2023-05-31T10:33:40;28.10;45.70
15121;DHT22;7661;48.904;9.414;2023-05-31T10:36:10;28.50;46.60
15121;DHT22;7661;48.904;9.414;2023-05-31T10:38:41;28.90;46.40
15121;DHT22;7661;48.904;9.414;2023-05-31T10:41:14;29.10;45.90
15121;DHT22;7661;48.904;9.414;2023-05-31T10:43:46;29.30;46.10
15121;DHT22;7661;48.904;9.414;2023-05-31T10:46:19;29.50;45.30
15121;DHT22;7661;48.904;9.414;2023-05-31T10:48:51;29.60;45.20
15121;DHT22;7661;48.904;9.414;2023-05-31T10:51:18;29.60;44.60
15121;DHT22;7661;48.904;9.414;2023-05-31T10:53:46;29.60;43.60
15121;DHT22;7661;48.904;9.414;2023-05-31T10:56:14;29.80;44.40
15121;DHT22;7661;48.904;9.414;2023-05-31T10:58:42;30.10;45.30
15121;DHT22;7661;48.904;9.414;2023-05-31T11:01:10;30.50;43.30
15121;DHT22;7661;48.904;9.414;2023-05-31T11:03:47;30.70;43.70
15121;DHT22;7661;48.904;9.414;2023-05-31T11:06:16;30.50;41.10
15121;DHT22;7661;48.904;9.414;2023-05-31T11:08:57;30.60;42.40
15121;DHT22;7661;48.904;9.414;2023-05-31T11:11:28;31.00;42.80
15121;DHT22;7661;48.904;9.414;2023-05-31T11:14:25;31.20;41.00
15121;DHT22;7661;48.904;9.414;2023-05-31T11:17:17;31.30;40.80
15121;DHT22;7661;48.904;9.414;2023-05-31T11:19:51;31.40;40.90
15121;DHT22;7661;48.904;9.414;2023-05-31T11:22:24;31.50;40.90
15121;DHT22;7661;48.904;9.414;2023-05-31T11:24:53;31.60;40.10
15121;DHT22;7661;48.904;9.414;2023-05-31T11:27:21;31.50;39.20
15121;DHT22;7661;48.904;9.414;2023-05-31T11:29:58;31.50;39.30
15121;DHT22;7661;48.904;9.414;2023-05-31T11:32:53;32.00;39.40
15121;DHT22;7661;48.904;9.414;2023-05-31T11:35:22;32.40;39.60
15121;DHT22;7661;48.904;9.414;2023-05-31T11:37:59;32.70;40.20
15121;DHT22;7661;48.904;9.414;2023-05-31T11:40:27;32.80;37.90
15121;DHT22;7661;48.904;9.414;2023-05-31T11:43:01;32.60;37.50
15121;DHT22;7661;48.904;9.414;2023-05-31T11:45:30;32.50;36.80
15121;DHT22;7661;48.904;9.414;2023-05-31T11:48:08;32.90;37.10
15121;DHT22;7661;48.904;9.414;2023-05-31T11:50:41;32.80;34.80
15121;DHT22;7661;48.904;9.414;2023-05-31T11:53:10;32.80;37.40
15121;DHT22;7661;48.904;9.414;2023-05-31T11:55:37;33.10;38.50
15121;DHT22;7661;48.904;9.414;2023-05-31T11:58:05;33.30;37.30
15121;DHT22;7661;48.904;9.414;2023-05-31T12:00:33;33.40;36.90
15121;DHT22;7661;48.904;9.414;2023-05-31T12:03:00;33.20;33.50
15121;DHT22;7661;48.904;9.414;2023-05-31T12:05:37;33.00;36.00
15121;DHT22;7661;48.904;9.414;2023-05-31T12:08:05;33.20;34.00
15121;DHT22;7661;48.904;9.414;2023-05-31T12:10:35;32.90;35.90
15121;DHT22;7661;48.904;9.414;2023-05-31T12:13:03;32.90;33.70
15121;DHT22;7661;48.904;9.414;2023-05-31T12:15:30;32.90;34.20
15121;DHT22;7661;48.904;9.414;2023-05-31T12:17:57;32.90;35.20
15121;DHT22;7661;48.904;9.414;2023-05-31T12:20:27;33.20;34.30
15121;DHT22;7661;48.904;9.414;2023-05-31T12:23:10;33.70;33.90
15121;DHT22;7661;48.904;9.414;2023-05-31T12:25:43;34.10;35.10
15121;DHT22;7661;48.904;9.414;2023-05-31T12:28:10;34.40;33.50
15121;DHT22;7661;48.904;9.414;2023-05-31T12:30:42;34.40;31.40
15121;DHT22;7661;48.904;9.414;2023-05-31T12:33:09;34.30;33.10
15121;DHT22;7661;48.904;9.414;2023-05-31T12:35:40;34.50;33.50
15121;DHT22;7661;48.904;9.414;2023-05-31T12:38:08;34.50;31.20
15121;DHT22;7661;48.904;9.414;2023-05-31T12:40:40;34.30;32.80
15121;DHT22;7661;48.904;9.414;2023-05-31T12:43:07;34.20;33.70
15121;DHT22;7661;48.904;9.414;2023-05-31T12:45:38;34.10;31.00
15121;DHT22;7661;48.904;9.414;2023-05-31T12:48:07;34.20;32.00
15121;DHT22;7661;48.904;9.414;2023-05-31T12:50:35;34.10;30.90
15121;DHT22;7661;48.904;9.414;2023-05-31T12:53:05;33.70;31.10
15121;DHT22;7661;48.904;9.414;2023-05-31T12:55:34;33.50;31.30
15121;DHT22;7661;48.904;9.414;2023-05-31T12:58:01;33.70;31.00
15121;DHT22;7661;48.904;9.414;2023-05-31T13:00:29;33.80;31.60
15121;DHT22;7661;48.904;9.414;2023-05-31T13:02:55;34.10;32.80
15121;DHT22;7661;48.904;9.414;2023-05-31T13:05:22;34.50;29.70
15121;DHT22;7661;48.904;9.414;2023-05-31T13:07:51;34.70;29.90
15121;DHT22;7661;48.904;9.414;2023-05-31T13:10:18;34.30;30.00
15121;DHT22;7661;48.904;9.414;2023-05-31T13:12:46;34.10;29.00
15121;DHT22;7661;48.904;9.414;2023-05-31T13:15:13;34.10;31.90
15121;DHT22;7661;48.904;9.414;2023-05-31T13:17:40;34.30;33.20
15121;DHT22;7661;48.904;9.414;2023-05-31T13:20:08;34.50;31.40
15121;DHT22;7661;48.904;9.414;2023-05-31T13:22:35;34.80;31.70
15121;DHT22;7661;48.904;9.414;2023-05-31T13:25:02;34.90;28.60
15121;DHT22;7661;48.904;9.414;2023-05-31T13:27:29;34.40;29.30
15121;DHT22;7661;48.904;9.414;2023-05-31T13:29:57;34.10;30.90
15121;DHT22;7661;48.904;9.414;2023-05-31T13:32:24;34.50;31.00
15121;DHT22;7661;48.904;9.414;2023-05-31T13:34:51;34.80;29.80
15121;DHT22;7661;48.904;9.414;2023-05-31T13:37:18;34.50;29.90
15121;DHT22;7661;48.904;9.414;2023-05-31T13:39:46;34.60;30.90
15121;DHT22;7661;48.904;9.414;2023-05-31T13:42:13;34.60;30.50
15121;DHT22;7661;48.904;9.414;2023-05-31T13:44:40;34.80;30.50
15121;DHT22;7661;48.904;9.414;2023-05-31T13:47:08;34.60;29.90
15121;DHT22;7661;48.904;9.414;2023-05-31T13:49:35;34.50;29.60
15121;DHT22;7661;48.904;9.414;2023-05-31T13:52:03;34.50;30.00
15121;DHT22;7661;48.904;9.414;2023-05-31T13:54:32;34.70;30.00
15121;DHT22;7661;48.904;9.414;2023-05-31T13:56:58;34.50;29.60
15121;DHT22;7661;48.904;9.414;2023-05-31T13:59:26;34.30;30.80
15121;DHT22;7661;48.904;9.414;2023-05-31T14:01:53;34.20;30.20
15121;DHT22;7661;48.904;9.414;2023-05-31T14:04:21;34.00;30.30
15121;DHT22;7661;48.904;9.414;2023-05-31T14:06:48;34.10;31.60
15121;DHT22;7661;48.904;9.414;2023-05-31T14:09:15;33.90;30.50
15121;DHT22;7661;48.904;9.414;2023-05-31T14:11:43;33.90;31.00
15121;DHT22;7661;48.904;9.414;2023-05-31T14:14:11;34.20;29.50
15121;DHT22;7661;48.904;9.414;2023-05-31T14:16:38;34.20;28.80
15121;DHT22;7661;48.904;9.414;2023-05-31T14:19:05;33.70;29.40
15121;DHT22;7661;48.904;9.414;2023-05-31T14:21:33;33.30;29.00
15121;DHT22;7661;48.904;9.414;2023-05-31T14:24:00;32.90;30.40
15121;DHT22;7661;48.904;9.414;2023-05-31T14:26:27;32.90;30.70
15121;DHT22;7661;48.904;9.414;2023-05-31T14:28:53;33.20;31.60
15121;DHT22;7661;48.904;9.414;2023-05-31T14:31:20;33.20;30.70
15121;DHT22;7661;48.904;9.414;2023-05-31T14:33:47;33.40;30.50
15121;DHT22;7661;48.904;9.414;2023-05-31T14:36:16;33.50;30.40
15121;DHT22;7661;48.904;9.414;2023-05-31T14:38:44;33.10;29.90
15121;DHT22;7661;48.904;9.414;2023-05-31T14:41:11;33.20;31.90
15121;DHT22;7661;48.904;9.414;2023-05-31T14:43:38;33.30;32.10
15121;DHT22;7661;48.904;9.414;2023-05-31T14:46:05;33.60;30.40
15121;DHT22;7661;48.904;9.414;2023-05-31T14:48:32;33.70;31.20
15121;DHT22;7661;48.904;9.414;2023-05-31T14:50:59;33.80;31.20
15121;DHT22;7661;48.904;9.414;2023-05-31T14:53:26;33.70;30.10
15121;DHT22;7661;48.904;9.414;2023-05-31T14:55:54;33.70;29.80
15121;DHT22;7661;48.904;9.414;2023-05-31T14:58:21;33.40;30.70
15121;DHT22;7661;48.904;9.414;2023-05-31T15:00:49;33.20;31.40
15121;DHT22;7661;48.904;9.414;2023-05-31T15:03:16;33.40;32.70
15121;DHT22;7661;48.904;9.414;2023-05-31T15:05:43;33.20;31.10
15121;DHT22;7661;48.904;9.414;2023-05-31T15:08:10;32.80;29.60
15121;DHT22;7661;48.904;9.414;2023-05-31T15:10:37;32.60;31.50
15121;DHT22;7661;48.904;9.414;2023-05-31T15:13:05;32.40;33.40
15121;DHT22;7661;48.904;9.414;2023-05-31T15:15:32;32.30;32.40
15121;DHT22;7661;48.904;9.414;2023-05-31T15:17:58;32.30;32.70
15121;DHT22;7661;48.904;9.414;2023-05-31T15:20:26;32.20;31.90
15121;DHT22;7661;48.904;9.414;2023-05-31T15:22:52;32.20;33.80
15121;DHT22;7661;48.904;9.414;2023-05-31T15:25:19;32.40;33.50
15121;DHT22;7661;48.904;9.414;2023-05-31T15:27:46;32.60;31.40
15121;DHT22;7661;48.904;9.414;2023-05-31T15:30:15;32.40;33.30
15121;DHT22;7661;48.904;9.414;2023-05-31T15:32:41;32.40;33.70
15121;DHT22;7661;48.904;9.414;2023-05-31T15:35:09;32.40;32.40
15121;DHT22;7661;48.904;9.414;2023-05-31T15:37:36;31.60;31.00
15121;DHT22;7661;48.904;9.414;2023-05-31T15:40:03;31.30;32.60
15121;DHT22;7661;48.904;9.414;2023-05-31T15:42:30;31.20;33.50
15121;DHT22;7661;48.904;9.414;2023-05-31T15:44:57;31.10;33.20
15121;DHT22;7661;48.904;9.414;2023-05-31T15:47:25;31.00;34.70
15121;DHT22;7661;48.904;9.414;2023-05-31T15:49:52;30.90;34.00
15121;DHT22;7661;48.904;9.414;2023-05-31T15:52:20;31.10;35.50
15121;DHT22;7661;48.904;9.414;2023-05-31T15:54:46;31.30;34.90
15121;DHT22;7661;48.904;9.414;2023-05-31T15:57:13;31.30;35.90
15121;DHT22;7661;48.904;9.414;2023-05-31T15:59:40;31.30;35.50
15121;DHT22;7661;48.904;9.414;2023-05-31T16:02:07;31.10;35.00